Vanceburg, KY

12:16 AM EDT on July 25, 2014 (GMT -0400)
RAWS SHAWNEE OH US (MTS732) Elev 1067 ft | 38.69 °N, 83.20 °W | Change Station

Current weather conditions updated 52 minutes ago

Mostly Cloudy
Mostly Cloudy
65 °F
Feels Like 65 °F
N
3
Wind Variable Wind from NNE
Gusts 5.0 mph

Today is forecast to be Much Cooler than yesterday.

Today
High -- | Low -- °F
--% Chance of Precip.
Yesterday
High -- | Low -- °F
Precip. -- in
6:29 AM 8:50 PM
Waning Crescent, 3% visible
Pressure 30.04 in
Visibility 9.0 miles
Clouds Overcast 6000 ft
Dew Point 56 °F
Humidity 74%
Rainfall 0.36 in
Snow Depth Not available.
UV 0 out of 12
Pollen 1.50 out of 12
Air Quality Not available.
Flu Activity Not available.
METAR KHTS 250351Z 00000KT 9SM OVC060 18/18 A3005 RMK AO2 SLP171 T01830178

More Conditions Fewer Conditions

Pressure 30.04 in
Visibility 9.0 miles
Clouds Overcast 6000 ft
Dew Point 56 °F
Humidity 74%
Rainfall 0.36 in
Snow Depth Not available.
UV 0 out of 12
Pollen 1.50 out of 12
Air Quality Not available.
Flu Activity Not available.
METAR KHTS 250351Z 00000KT 9SM OVC060 18/18 A3005 RMK AO2 SLP171 T01830178

More Conditions Fewer Conditions

10-Day Weather Forecast

Almanac

Astronomy

Jul. 25, 2014 Rise Set
Actual Time 6:29 AM EDT 8:50 PM EDT
Civil Twilight 5:59 AM EDT 9:20 PM EDT
Nautical Twilight 5:21 AM EDT 9:57 PM EDT
Astronomical Twilight 4:40 AM EDT 10:37 PM EDT
Moon 5:27 AM EDT 7:47 PM EDT
Length of Visible Light 15h 21m
Length of Day
14h 21m
Tomorrow will be 1m 41s shorter.
Waning Crescent, 3% of the Moon is Illuminated
Today
Waning Crescent
Jul 26
New
Aug 3
First Quarter
Aug 10
Full
Aug 17
Last Quarter

Yesterday's Extremes

State Highs State Lows

Community

WunderPhotos

Upload Photos

1,737,242 photos uploaded!

Nearby

Snow Depth

Station Depth Elevation
No new snow has been reported.

Earthquake Activity

City Distance Mag. Time & Date
No recent earthquake activity has been reported nearby.
Minimum magnitude displayed is 2.5.

Coastal Water Temperatures

Place Temperature
No Stations Reporting

Nearby Weather Stations

Station Location Temp. Dew Point Humidity Wind Precip. Elev Updated Type
RAWS SHAWNEE OH, Friendship, OH 65 °F 56 °F 74% NNE  at  3 mph 0.00 in / hr 1067 ft 11:24 PM EDT MADIS
Edge of Appalachia Preserve, West Union, OH 62.6 °F 62 °F 97% ENE  at  0.0 mph 0.00 in / hr 663 ft 12:15 AM EDT Rapid Fire
Polecat Pike, Maysville, KY 62.4 °F 59 °F 88% NNE  at  0.0 mph - / hr 866 ft 12:07 AM EDT Normal
Bon Haven Dr, Maysville, KY 64.2 °F 51 °F 62% NNE  at  0.0 mph 0.00 in / hr 896 ft 12:16 AM EDT Normal

Show More Stations Show Fewer Stations